Abbott, Pennsylvania
Current Conditions -  °F | °C
As of 1:55 PM on Friday 21 Nov 2014 (Local Time) from KN38 Reporting Station
Scattered Clouds Scattered Clouds  
Wind Chill: 12°   Ceiling: Unl
Heat Index: 23°   Visibility: 10mi
Dew Point:   Wind: 12mph
Humidity: 54%   Direction: 330°NNW
Pressure: 30.31"   Gusts: 18mph
Location:  41.6755°N, 77.7071°W
Report Text: KN38 211855Z AUTO 33010G16KT 300V360 10SM SCT035 SCT041 M05/M13 A3031 RMK AO2
Loading
Personal Weather Stations






























Interactive Weather Map New forecast layout! Learn more

10-Day Weather Forecast

Advertisements
Track Severe Weather on mobile